Time;durP1;ratioP1;P1;durP2;ratioP2;P2;SDS_P1;SDS_P2;PMS_P1;PMS_P2;Temp;Humidity;BMP_temperature;BMP_pressure;BME280_temperature;BME280_humidity;BME280_pressure;Samples;Min_cycle;Max_cycle;Signal;HPM_P1;HPM_P2
2022/05/17 00:02:20;;;;;;;11.40;3.90;;;15.00;99.90;;;;;;4857603;29;20053;-95
2022/05/17 00:04:46;;;;;;;8.63;4.78;;;15.00;99.90;;;;;;4860392;29;20045;-95
2022/05/17 00:07:12;;;;;;;12.00;4.17;;;14.90;99.90;;;;;;4859372;29;20046;-96
2022/05/17 00:09:38;;;;;;;9.13;6.10;;;14.90;99.90;;;;;;4843692;29;20037;-95
2022/05/17 00:12:04;;;;;;;5.88;4.90;;;14.90;99.90;;;;;;4842041;29;20313;-94
2022/05/17 00:14:31;;;;;;;15.38;5.65;;;14.80;99.90;;;;;;4843801;29;20105;-96
2022/05/17 00:16:57;;;;;;;6.35;4.25;;;14.80;99.90;;;;;;4860818;29;20105;-95
2022/05/17 00:19:24;;;;;;;9.60;4.05;;;14.70;99.90;;;;;;4877433;29;20049;-96
2022/05/17 00:21:50;;;;;;;;;;;14.70;99.90;;;;;;4845374;29;20106;-96
2022/05/17 00:24:18;;;;;;;10.48;4.22;;;14.70;99.90;;;;;;4845871;29;19924;-96
2022/05/17 00:26:44;;;;;;;6.18;3.90;;;14.60;99.90;;;;;;4846989;29;20109;-92
2022/05/17 00:29:11;;;;;;;5.80;4.03;;;14.60;99.90;;;;;;4847137;29;20060;-96
2022/05/17 00:31:37;;;;;;;7.20;4.18;;;14.60;99.90;;;;;;4846502;29;20128;-96
2022/05/17 00:34:04;;;;;;;7.03;4.15;;;14.50;99.90;;;;;;4830275;29;20160;-95
2022/05/17 00:36:32;;;;;;;;;;;14.50;99.90;;;;;;4863397;29;20080;-96
2022/05/17 00:38:58;;;;;;;9.05;4.43;;;14.50;99.90;;;;;;4847345;29;19996;-96
2022/05/17 00:41:24;;;;;;;6.60;4.25;;;14.50;99.90;;;;;;4861485;29;20128;-96
2022/05/17 00:47:00;;;;;;;6.50;4.78;;;14.40;99.90;;;;;;4864534;29;20056;-95
2022/05/17 00:49:32;;;;;;;8.68;4.47;;;14.40;99.90;;;;;;4864200;29;20041;-96
2022/05/17 00:52:02;;;;;;;8.02;3.38;;;14.40;99.90;;;;;;4863478;29;20400;-95
2022/05/17 00:54:29;;;;;;;11.85;5.45;;;14.30;99.90;;;;;;4862268;29;20049;-95
2022/05/17 00:57:16;;;;;;;11.25;4.88;;;14.30;99.90;;;;;;4847982;29;20132;-96
2022/05/17 00:59:42;;;;;;;9.07;3.97;;;14.30;99.90;;;;;;4848707;29;20400;-96
2022/05/17 01:02:09;;;;;;;12.32;5.65;;;14.30;99.90;;;;;;4868756;29;20046;-95
2022/05/17 01:04:35;;;;;;;9.05;5.93;;;14.20;99.90;;;;;;4863996;29;20049;-95
2022/05/17 01:07:06;;;;;;;8.18;5.10;;;14.20;99.90;;;;;;4851860;29;20045;-96
2022/05/17 01:09:32;;;;;;;11.23;4.88;;;14.20;99.90;;;;;;4864438;29;20045;-96
2022/05/17 01:11:57;;;;;;;7.32;4.25;;;14.10;99.90;;;;;;4861707;29;20120;-96
2022/05/17 01:17:08;;;;;;;6.63;3.97;;;14.10;99.90;;;;;;4861645;29;20061;-96
2022/05/17 01:19:34;;;;;;;12.88;3.75;;;14.10;99.90;;;;;;4846878;29;20060;-96
2022/05/17 01:22:00;;;;;;;9.93;3.97;;;14.00;99.90;;;;;;4861163;29;20483;-96
2022/05/17 01:24:26;;;;;;;7.27;6.10;;;14.00;99.90;;;;;;4845893;29;20471;-96
2022/05/17 01:27:00;;;;;;;5.43;4.73;;;14.00;99.90;;;;;;4846507;29;20116;-94
2022/05/17 01:29:26;;;;;;;7.78;3.70;;;14.00;99.90;;;;;;4865219;29;20412;-96
2022/05/17 01:31:51;;;;;;;5.07;3.55;;;14.00;99.90;;;;;;4864791;29;20046;-96
2022/05/17 01:34:20;;;;;;;4.53;3.70;;;14.00;99.90;;;;;;4848359;29;20052;-94
2022/05/17 01:36:49;;;;;;;9.27;5.18;;;15.30;99.90;;;;;;4846765;29;20111;-96
2022/05/17 01:39:14;;;;;;;7.57;4.32;;;13.90;99.90;;;;;;4863006;29;20216;-96
2022/05/17 01:41:42;;;;;;;5.37;3.53;;;14.00;99.90;;;;;;4851992;29;20521;-96
2022/05/17 01:44:09;;;;;;;8.88;3.78;;;12.70;99.90;;;;;;4867185;29;20056;-95
2022/05/17 01:46:37;;;;;;;4.70;3.28;;;13.90;99.90;;;;;;4847040;29;20541;-96
2022/05/17 01:49:03;;;;;;;5.13;3.88;;;14.30;99.90;;;;;;4845855;29;20042;-96
2022/05/17 01:51:29;;;;;;;8.83;5.40;;;12.90;99.90;;;;;;4845406;29;20055;-96
2022/05/17 01:53:55;;;;;;;10.13;4.20;;;14.10;99.90;;;;;;4858353;29;20056;-93
2022/05/17 01:56:20;;;;;;;12.57;4.07;;;13.90;99.90;;;;;;4861210;29;20516;-96
2022/05/17 01:58:48;;;;;;;6.70;4.40;;;13.10;99.90;;;;;;4862400;29;20049;-96
2022/05/17 02:01:14;;;;;;;9.25;6.00;;;13.80;99.90;;;;;;4845111;29;20341;-95
2022/05/17 02:03:40;;;;;;;8.93;4.83;;;13.90;99.90;;;;;;4861575;29;20073;-96
2022/05/17 02:06:06;;;;;;;5.78;3.75;;;13.80;99.90;;;;;;4845261;29;20132;-96
2022/05/17 02:08:35;;;;;;;9.35;4.72;;;13.80;99.90;;;;;;4863010;29;20141;-96
2022/05/17 02:11:01;;;;;;;7.10;4.13;;;13.80;99.90;;;;;;4860559;29;20045;-96
2022/05/17 02:13:27;;;;;;;7.10;4.90;;;13.70;99.90;;;;;;4845023;29;20183;-96
2022/05/17 02:16:09;;;;;;;6.78;3.83;;;13.80;99.90;;;;;;4856592;29;20053;-96
2022/05/17 02:18:47;;;;;;;8.68;4.40;;;13.60;99.90;;;;;;4856573;29;20093;-96
2022/05/17 02:21:16;;;;;;;11.18;5.30;;;13.30;99.90;;;;;;4856304;29;20057;-96
2022/05/17 02:23:55;;;;;;;7.53;5.95;;;14.00;99.90;;;;;;4840895;29;20061;-96
2022/05/17 02:26:23;;;;;;;8.85;4.72;;;14.20;99.90;;;;;;4848662;29;20041;-96
2022/05/17 02:28:49;;;;;;;6.78;4.28;;;13.60;99.90;;;;;;4849043;29;20049;-96
2022/05/17 02:31:16;;;;;;;9.50;5.23;;;12.80;99.90;;;;;;4848662;29;20056;-96
2022/05/17 02:33:42;;;;;;;9.40;4.82;;;13.60;99.90;;;;;;4864123;29;20480;-95
2022/05/17 02:36:10;;;;;;;11.75;5.05;;;13.50;99.90;;;;;;4846335;29;20041;-96
2022/05/17 02:38:35;;;;;;;5.53;4.28;;;13.30;99.90;;;;;;4831147;29;20053;-95
2022/05/17 02:41:01;;;;;;;8.83;4.80;;;13.50;99.90;;;;;;4830303;29;20501;-90
2022/05/17 02:43:27;;;;;;;7.47;5.15;;;13.60;99.90;;;;;;4845753;29;20262;-94
2022/05/17 02:45:53;;;;;;;8.27;4.78;;;13.40;99.90;;;;;;4827186;29;20049;-95
2022/05/17 02:48:19;;;;;;;11.70;5.57;;;13.50;99.90;;;;;;4829386;29;20124;-96
2022/05/17 02:50:45;;;;;;;9.33;4.97;;;13.50;99.90;;;;;;4814722;29;20453;-96
2022/05/17 02:53:10;;;;;;;9.53;4.70;;;13.40;99.90;;;;;;4844127;29;20290;-96
2022/05/17 02:55:36;;;;;;;10.33;6.13;;;13.40;99.90;;;;;;4827160;29;20523;-94
2022/05/17 02:58:02;;;;;;;9.80;5.30;;;13.30;99.90;;;;;;4826091;29;20045;-96
2022/05/17 03:00:28;;;;;;;11.77;5.53;;;13.30;99.90;;;;;;4829509;29;20512;-95
2022/05/17 03:02:57;;;;;;;18.38;6.97;;;13.30;99.90;;;;;;4845180;29;20060;-95
2022/05/17 03:05:27;;;;;;;10.52;5.70;;;13.30;99.90;;;;;;4812944;29;20049;-94
2022/05/17 03:07:54;;;;;;;13.77;5.72;;;13.30;99.90;;;;;;4830050;29;20060;-95
2022/05/17 03:10:21;;;;;;;7.03;4.93;;;13.30;99.90;;;;;;4844368;29;20073;-96
2022/05/17 03:12:47;;;;;;;11.43;5.70;;;13.20;99.90;;;;;;4828930;29;20057;-95
2022/05/17 03:15:20;;;;;;;8.88;5.55;;;13.20;99.90;;;;;;4850135;29;20061;-94
2022/05/17 03:17:46;;;;;;;8.70;4.38;;;13.20;99.90;;;;;;4847347;29;20423;-94
2022/05/17 03:20:12;;;;;;;11.98;5.18;;;13.20;99.90;;;;;;4845200;29;20061;-96
2022/05/17 03:22:38;;;;;;;24.10;5.57;;;13.10;99.90;;;;;;4844314;29;20404;-96
2022/05/17 03:25:04;;;;;;;10.00;6.07;;;13.10;99.90;;;;;;4828074;29;20053;-95
2022/05/17 03:27:30;;;;;;;9.25;5.18;;;13.10;99.90;;;;;;4842333;29;20046;-96
2022/05/17 03:29:57;;;;;;;11.07;5.63;;;13.10;99.90;;;;;;4843784;29;20097;-96
2022/05/17 03:32:23;;;;;;;9.77;5.93;;;13.20;99.90;;;;;;4842879;29;20504;-93
2022/05/17 03:34:49;;;;;;;12.70;4.87;;;13.00;99.90;;;;;;4843073;29;20053;-95
2022/05/17 03:37:14;;;;;;;11.32;5.85;;;13.00;99.90;;;;;;4844198;29;20095;-96
2022/05/17 03:39:42;;;;;;;9.43;5.43;;;12.10;99.90;;;;;;4828833;29;20405;-96
2022/05/17 03:42:09;;;;;;;11.15;5.15;;;13.00;99.90;;;;;;4857460;29;20045;-95
2022/05/17 03:44:38;;;;;;;14.95;5.03;;;13.00;99.90;;;;;;4828206;29;20157;-96
2022/05/17 03:47:07;;;;;;;6.88;5.15;;;12.90;99.90;;;;;;4843734;29;20517;-96
2022/05/17 03:49:36;;;;;;;8.32;4.72;;;13.00;99.90;;;;;;4843824;29;20050;-96
2022/05/17 03:52:02;;;;;;;8.15;4.80;;;13.00;99.90;;;;;;4843823;29;20056;-96
2022/05/17 03:54:28;;;;;;;11.77;4.60;;;13.00;99.90;;;;;;4830268;29;20046;-96
2022/05/17 03:56:54;;;;;;;11.38;5.88;;;13.00;99.90;;;;;;4817164;29;20133;-96
2022/05/17 03:59:20;;;;;;;7.47;5.35;;;13.00;99.90;;;;;;4831649;29;20077;-95
2022/05/17 04:01:45;;;;;;;9.10;5.70;;;13.00;99.90;;;;;;4848019;29;20073;-95
2022/05/17 04:04:12;;;;;;;10.40;5.37;;;13.00;99.90;;;;;;4817279;29;20128;-95
2022/05/17 04:06:38;;;;;;;6.97;4.55;;;13.10;99.90;;;;;;4847276;29;20527;-96
2022/05/17 04:09:07;;;;;;;9.73;5.60;;;13.00;99.90;;;;;;4831673;29;20045;-95
2022/05/17 04:11:34;;;;;;;6.05;5.13;;;13.30;99.90;;;;;;4817567;29;20601;-96
2022/05/17 04:14:00;;;;;;;10.57;6.53;;;13.10;99.90;;;;;;4844479;29;20048;-94
2022/05/17 04:16:30;;;;;;;7.45;5.20;;;13.00;99.90;;;;;;4832989;29;20045;-95
2022/05/17 04:18:56;;;;;;;8.25;5.82;;;13.10;99.90;;;;;;4834615;29;20057;-95
2022/05/17 04:21:24;;;;;;;9.00;5.50;;;13.10;99.90;;;;;;4848140;29;20053;-96
2022/05/17 04:23:50;;;;;;;10.95;6.25;;;13.10;99.90;;;;;;4848123;29;20400;-96
2022/05/17 04:26:18;;;;;;;7.93;5.30;;;13.20;99.90;;;;;;4847182;29;20052;-92
2022/05/17 04:28:44;;;;;;;14.23;6.28;;;13.20;99.90;;;;;;4834056;29;20106;-95
2022/05/17 04:31:10;;;;;;;8.70;5.35;;;13.20;99.90;;;;;;4836648;29;20054;-94
2022/05/17 04:33:36;;;;;;;10.30;5.70;;;13.30;99.90;;;;;;4848441;29;20054;-94
2022/05/17 04:36:02;;;;;;;15.10;5.80;;;13.30;99.90;;;;;;4850137;29;20134;-96
2022/05/17 04:38:28;;;;;;;7.18;4.90;;;12.90;99.90;;;;;;4832268;29;20045;-96
2022/05/17 04:40:54;;;;;;;10.93;6.40;;;13.40;99.90;;;;;;4831892;29;20052;-96
2022/05/17 04:43:20;;;;;;;8.77;5.10;;;13.50;99.90;;;;;;4816219;29;20117;-95
2022/05/17 04:45:45;;;;;;;12.87;6.63;;;13.50;99.90;;;;;;4846286;29;20053;-96
2022/05/17 04:48:12;;;;;;;6.30;4.63;;;13.50;99.90;;;;;;4846427;29;20326;-96
2022/05/17 04:50:38;;;;;;;11.27;4.95;;;13.70;99.90;;;;;;4846523;29;20113;-95
2022/05/17 04:53:04;;;;;;;8.25;4.38;;;13.70;99.90;;;;;;4846948;29;20125;-95
2022/05/17 04:55:31;;;;;;;7.63;5.22;;;13.90;99.90;;;;;;4829285;29;20078;-96
2022/05/17 04:57:57;;;;;;;10.25;5.07;;;14.10;99.90;;;;;;4831160;29;20041;-95
2022/05/17 05:00:25;;;;;;;6.70;4.77;;;14.30;99.90;;;;;;4845788;29;20512;-96
2022/05/17 05:02:51;;;;;;;8.75;5.30;;;14.60;99.90;;;;;;4841939;29;20298;-95
2022/05/17 05:05:22;;;;;;;9.10;4.75;;;14.80;99.90;;;;;;4832301;29;20041;-95
2022/05/17 05:07:48;;;;;;;6.78;4.60;;;14.70;99.90;;;;;;4846484;29;20589;-96
2022/05/17 05:10:14;;;;;;;6.82;5.50;;;14.70;99.90;;;;;;4831201;29;20110;-96
2022/05/17 05:12:40;;;;;;;6.90;4.68;;;14.60;99.90;;;;;;4830990;29;20822;-96
2022/05/17 05:15:07;;;;;;;9.57;4.65;;;14.70;99.90;;;;;;4846017;29;20053;-95
2022/05/17 05:17:35;;;;;;;10.07;4.57;;;14.80;99.90;;;;;;4846233;29;20072;-96
2022/05/17 05:20:04;;;;;;;8.23;5.03;;;15.00;99.90;;;;;;4850503;29;20501;-95
2022/05/17 05:22:31;;;;;;;6.22;4.43;;;15.20;99.90;;;;;;4848060;29;20041;-96
2022/05/17 05:24:57;;;;;;;10.20;5.85;;;15.50;99.90;;;;;;4846040;29;20049;-95
2022/05/17 05:27:23;;;;;;;7.68;4.90;;;15.90;99.90;;;;;;4829118;29;20121;-93
2022/05/17 05:29:52;;;;;;;9.25;5.60;;;16.00;99.90;;;;;;4834990;29;20037;-95
2022/05/17 05:32:17;;;;;;;12.67;5.30;;;16.10;99.90;;;;;;4840824;29;20045;-96
2022/05/17 05:34:43;;;;;;;12.00;4.03;;;16.00;99.90;;;;;;4828626;29;20066;-95
2022/05/17 05:37:09;;;;;;;11.00;4.53;;;16.10;99.90;;;;;;4844559;29;20113;-95
2022/05/17 05:39:34;;;;;;;9.00;4.77;;;16.20;99.90;;;;;;4844823;29;20489;-95
2022/05/17 05:42:00;;;;;;;7.77;4.73;;;16.30;99.90;;;;;;4845714;29;20045;-95
2022/05/17 05:44:26;;;;;;;7.53;4.27;;;16.40;99.90;;;;;;4844029;29;20046;-91
2022/05/17 05:46:51;;;;;;;6.80;4.97;;;16.60;99.90;;;;;;4846951;29;20041;-96
2022/05/17 05:49:17;;;;;;;11.10;5.13;;;16.90;99.90;;;;;;4846661;29;20302;-95
2022/05/17 05:51:45;;;;;;;8.00;4.22;;;17.20;99.90;;;;;;4844653;29;20081;-96
2022/05/17 05:54:11;;;;;;;7.60;4.82;;;17.50;99.90;;;;;;4829716;29;20045;-94
2022/05/17 05:56:38;;;;;;;8.17;3.77;;;17.80;99.90;;;;;;4827793;29;20501;-94
2022/05/17 05:59:04;;;;;;;5.35;3.70;;;18.00;99.90;;;;;;4844990;29;20083;-95
2022/05/17 06:01:29;;;;;;;9.80;4.53;;;18.20;99.90;;;;;;4844075;29;20092;-92
2022/05/17 06:03:55;;;;;;;8.05;4.30;;;18.30;99.90;;;;;;4845027;29;20038;-95
2022/05/17 06:06:21;;;;;;;6.53;3.63;;;18.40;99.90;;;;;;4847167;29;20045;-95
2022/05/17 06:08:47;;;;;;;4.95;3.85;;;18.30;99.90;;;;;;4843792;29;20052;-95
2022/05/17 06:11:14;;;;;;;8.02;3.67;;;18.10;99.90;;;;;;4829116;29;20139;-96
2022/05/17 06:13:39;;;;;;;4.82;3.55;;;17.90;99.90;;;;;;4841676;29;20061;-94
2022/05/17 06:16:05;;;;;;;7.75;4.63;;;17.80;99.90;;;;;;4814252;29;20041;-93
2022/05/17 06:18:31;;;;;;;11.68;3.30;;;17.70;99.90;;;;;;4843643;29;20045;-92
2022/05/17 06:21:00;;;;;;;7.22;4.15;;;17.70;99.90;;;;;;4844612;29;20382;-95
2022/05/17 06:23:26;;;;;;;6.10;2.88;;;17.80;99.90;;;;;;4844540;29;20497;-95
2022/05/17 06:25:52;;;;;;;4.95;3.13;;;17.70;99.90;;;;;;4845387;29;20072;-94
2022/05/17 06:28:18;;;;;;;6.95;3.75;;;17.70;99.90;;;;;;4799438;29;20049;-94
2022/05/17 06:30:44;;;;;;;12.25;4.18;;;17.60;99.90;;;;;;4843393;29;20046;-95
2022/05/17 06:33:12;;;;;;;4.50;3.28;;;17.60;99.90;;;;;;4814443;29;20065;-93
2022/05/17 06:35:42;;;;;;;11.00;4.07;;;17.60;99.90;;;;;;4859374;29;20056;-93
2022/05/17 06:38:08;;;;;;;3.75;2.88;;;17.60;99.90;;;;;;4833378;29;20050;-91
2022/05/17 06:40:34;;;;;;;6.68;3.78;;;17.60;99.90;;;;;;4828676;29;20114;-91
2022/05/17 06:43:00;;;;;;;4.50;3.15;;;17.70;99.90;;;;;;4839497;29;20064;-90
2022/05/17 06:45:26;;;;;;;9.05;3.30;;;17.80;99.90;;;;;;4860063;29;20041;-92
2022/05/17 06:47:52;;;;;;;6.18;3.38;;;17.80;99.90;;;;;;4843689;29;20371;-94
2022/05/17 06:50:18;;;;;;;6.70;3.15;;;17.90;99.90;;;;;;4828894;29;20076;-96
2022/05/17 06:52:44;;;;;;;6.55;3.35;;;17.90;99.90;;;;;;4841981;29;20053;-90
2022/05/17 06:55:11;;;;;;;4.70;3.22;;;18.10;99.90;;;;;;4813843;29;20049;-95
2022/05/17 06:57:38;;;;;;;7.65;3.25;;;18.20;99.90;;;;;;4847140;29;20084;-94
2022/05/17 07:00:05;;;;;;;4.65;2.97;;;18.30;99.90;;;;;;4844414;29;20057;-94
2022/05/17 07:02:32;;;;;;;5.80;3.05;;;18.50;99.90;;;;;;4843566;29;20133;-94
2022/05/17 07:04:59;;;;;;;5.25;3.20;;;18.90;99.90;;;;;;4842603;29;20057;-95
2022/05/17 07:07:26;;;;;;;5.50;3.08;;;19.20;99.90;;;;;;4813738;29;20523;-89
2022/05/17 07:15:24;;;;;;;5.82;2.20;;;19.90;99.90;;;;;;4865027;29;20109;-95
2022/05/17 07:17:51;;;;;;;4.68;3.38;;;19.70;99.90;;;;;;4882406;29;20135;-91
2022/05/17 07:20:16;;;;;;;;;;;20.20;99.90;;;;;;4863737;29;20045;-94
2022/05/17 07:22:43;;;;;;;6.05;2.40;;;20.20;99.90;;;;;;4861878;29;19935;-91
2022/05/17 07:25:09;;;;;;;3.83;2.13;;;20.10;99.90;;;;;;4861006;29;20041;-93
2022/05/17 07:27:35;;;;;;;5.43;2.83;;;20.10;99.90;;;;;;4862683;29;20252;-95
2022/05/17 07:30:02;;;;;;;4.13;2.53;;;20.10;99.90;;;;;;4872521;29;20489;-93
2022/05/17 07:32:28;;;;;;;4.82;2.40;;;20.00;99.90;;;;;;4873214;29;20077;-96
2022/05/17 07:34:54;;;;;;;3.97;2.42;;;19.90;99.90;;;;;;4860123;29;20084;-94
2022/05/17 07:37:19;;;;;;;2.47;2.08;;;19.90;99.90;;;;;;4878215;29;20069;-94
2022/05/17 07:39:45;;;;;;;4.40;2.75;;;20.00;99.90;;;;;;4845693;29;20072;-94
2022/05/17 07:42:12;;;;;;;5.43;2.60;;;20.00;99.90;;;;;;4862392;29;20104;-94
2022/05/17 07:44:38;;;;;;;5.13;2.53;;;20.10;99.90;;;;;;4864485;29;20055;-96
2022/05/17 07:47:05;;;;;;;6.38;2.63;;;20.30;99.90;;;;;;4855894;29;20049;-95
2022/05/17 07:49:39;;;;;;;4.95;3.13;;;20.40;99.90;;;;;;5014820;23;20102;-95
2022/05/17 07:52:07;;;;;;;6.68;2.55;;;20.00;99.90;;;;;;4879900;23;20090;-95
2022/05/17 07:54:33;;;;;;;4.47;2.45;;;20.70;99.90;;;;;;4865420;29;20062;-95
2022/05/17 07:56:58;;;;;;;4.05;3.10;;;20.80;99.90;;;;;;4861059;29;21518;-92
2022/05/17 07:59:24;;;;;;;3.90;2.33;;;20.90;99.90;;;;;;4849555;29;20518;-96
2022/05/17 08:01:50;;;;;;;;;;;21.00;99.90;;;;;;4836816;29;20092;-94
2022/05/17 08:04:15;;;;;;;5.00;2.33;;;21.10;99.90;;;;;;4857407;29;19927;-93
2022/05/17 08:06:41;;;;;;;;;;;21.00;99.90;;;;;;4869144;29;20155;-94
2022/05/17 08:09:07;;;;;;;4.47;2.97;;;20.90;99.90;;;;;;4846146;29;20377;-91
2022/05/17 08:11:33;;;;;;;5.90;3.13;;;21.10;99.90;;;;;;4850367;29;20519;-92
2022/05/17 08:13:59;;;;;;;4.30;3.10;;;21.20;99.90;;;;;;4864292;29;20041;-91
2022/05/17 08:16:25;;;;;;;;;;;21.20;99.90;;;;;;5017315;23;20116;-96
2022/05/17 08:19:05;;;;;;;4.80;2.28;;;20.50;99.90;;;;;;4869615;29;19938;-94
2022/05/17 08:21:31;;;;;;;10.68;2.78;;;21.30;99.90;;;;;;4893046;29;20060;-96
2022/05/17 08:23:57;;;;;;;;;;;21.40;99.90;;;;;;4859452;29;20060;-96
2022/05/17 08:29:06;;;;;;;2.45;2.25;;;21.80;99.90;;;;;;4961054;23;20061;-96
2022/05/17 08:34:08;;;;;;;2.33;1.70;;;22.20;99.90;;;;;;5013136;23;20232;-91
2022/05/17 08:36:34;;;;;;;;;;;22.50;99.90;;;;;;4838690;29;20082;-93
2022/05/17 08:39:00;;;;;;;2.00;1.73;;;22.50;99.90;;;;;;4880769;29;19924;-90
2022/05/17 08:41:36;;;;;;;1.42;1.33;;;22.80;99.90;;;;;;4875044;29;20052;-92
2022/05/17 08:44:09;;;;;;;3.10;1.50;;;22.90;99.90;;;;;;4878984;29;20051;-92
2022/05/17 08:46:59;;;;;;;5.03;1.98;;;22.90;99.90;;;;;;4881009;29;20722;-91
2022/05/17 08:50:03;;;;;;;2.50;1.92;;;23.00;99.90;;;;;;4879586;29;20109;-92
2022/05/17 08:52:31;;;;;;;5.05;1.98;;;23.10;99.90;;;;;;4843379;29;20146;-91
2022/05/17 08:55:02;;;;;;;3.00;1.75;;;23.00;99.90;;;;;;4858666;29;20105;-92
2022/05/17 08:57:51;;;;;;;5.05;2.15;;;23.10;99.90;;;;;;4885416;29;20049;-94
2022/05/17 09:00:36;;;;;;;1.63;1.40;;;23.20;99.90;;;;;;4888272;29;20207;-90
2022/05/17 09:03:21;;;;;;;1.65;1.23;;;23.20;99.90;;;;;;4879079;29;20057;-94
2022/05/17 09:06:02;;;;;;;3.33;2.05;;;23.30;99.90;;;;;;4869184;29;20049;-92
2022/05/17 09:08:52;;;;;;;6.55;1.40;;;23.40;99.90;;;;;;4862455;29;20116;-93
2022/05/17 09:11:41;;;;;;;3.40;2.30;;;23.50;99.90;;;;;;4847466;29;20497;-95
2022/05/17 09:14:09;;;;;;;3.97;1.45;;;23.30;99.90;;;;;;4857407;29;20045;-93
2022/05/17 09:16:39;;;;;;;2.65;1.48;;;23.20;99.90;;;;;;4877330;29;20487;-93
2022/05/17 09:19:05;;;;;;;5.07;1.30;;;23.40;99.90;;;;;;4863662;29;20049;-91
2022/05/17 09:21:36;;;;;;;;;;;23.40;99.90;;;;;;4863479;29;20101;-95
2022/05/17 09:24:08;;;;;;;2.35;1.02;;;23.40;98.60;;;;;;4850789;29;20282;-93
2022/05/17 09:26:34;;;;;;;1.83;1.63;;;23.50;99.90;;;;;;4881666;29;20040;-93
2022/05/17 09:29:14;;;;;;;1.10;1.00;;;23.70;99.90;;;;;;4876607;29;20048;-92
2022/05/17 09:31:51;;;;;;;1.67;1.30;;;23.70;97.70;;;;;;4868457;29;20400;-94
2022/05/17 09:34:29;;;;;;;2.63;1.65;;;23.50;97.50;;;;;;4875977;29;20052;-92
2022/05/17 09:36:56;;;;;;;4.25;1.42;;;23.50;97.80;;;;;;4879936;29;20053;-90
2022/05/17 09:39:28;;;;;;;5.82;1.40;;;23.60;98.80;;;;;;4896605;29;20049;-91
2022/05/17 09:42:00;;;;;;;5.18;2.17;;;23.60;98.00;;;;;;4886939;29;20151;-89
2022/05/17 09:44:27;;;;;;;4.32;1.88;;;23.70;97.60;;;;;;4897507;29;20048;-92
2022/05/17 09:47:05;;;;;;;4.15;2.20;;;23.80;96.90;;;;;;4863769;29;20120;-91
2022/05/17 09:52:42;;;;;;;1.98;1.20;;;23.80;96.40;;;;;;4893256;29;20044;-92
2022/05/17 09:55:30;;;;;;;2.70;1.35;;;23.80;95.10;;;;;;4865101;29;20499;-91
2022/05/17 09:58:03;;;;;;;3.10;1.60;;;23.80;92.80;;;;;;4865061;29;20568;-92
2022/05/17 10:00:35;;;;;;;2.25;1.20;;;23.90;94.80;;;;;;4878647;29;20044;-92
2022/05/17 10:03:19;;;;;;;3.70;1.60;;;24.00;94.90;;;;;;4881068;29;20040;-90
2022/05/17 10:05:54;;;;;;;2.05;1.33;;;24.10;94.80;;;;;;4881897;29;20492;-92
2022/05/17 10:08:20;;;;;;;3.92;1.70;;;24.20;95.30;;;;;;4865545;29;20495;-95
2022/05/17 10:11:00;;;;;;;4.50;1.45;;;24.30;95.70;;;;;;4866463;29;20059;-92
2022/05/17 10:13:38;;;;;;;4.28;0.85;;;24.30;94.90;;;;;;4864171;29;20091;-94
2022/05/17 10:16:27;;;;;;;4.38;1.50;;;24.40;92.50;;;;;;4881051;29;20037;-94
2022/05/17 10:18:59;;;;;;;2.13;1.15;;;24.30;90.60;;;;;;4884822;29;20526;-93
2022/05/17 10:21:37;;;;;;;2.17;1.20;;;24.20;90.50;;;;;;4882570;29;20048;-93
2022/05/17 10:24:19;;;;;;;2.80;1.20;;;24.30;88.90;;;;;;4898451;29;20041;-94
2022/05/17 10:27:03;;;;;;;1.55;1.13;;;24.20;87.20;;;;;;4899056;29;20072;-95
2022/05/17 10:30:00;;;;;;;1.30;0.88;;;24.30;88.60;;;;;;5009103;23;20090;-96
2022/05/17 10:32:46;;;;;;;4.03;1.20;;;24.40;86.90;;;;;;4998519;23;20072;-95
2022/05/17 10:35:46;;;;;;;1.45;1.27;;;24.70;84.70;;;;;;4862443;29;20424;-95
2022/05/17 10:38:47;;;;;;;1.65;1.20;;;24.80;84.70;;;;;;4835821;29;20201;-96
2022/05/17 10:41:13;;;;;;;5.07;1.10;;;24.80;83.20;;;;;;4932597;23;20048;-89
2022/05/17 10:43:44;;;;;;;1.80;0.95;;;24.80;83.70;;;;;;4889411;29;20067;-88
2022/05/17 10:46:17;;;;;;;1.65;0.85;;;24.70;80.70;;;;;;4908465;29;20084;-91
2022/05/17 10:49:28;;;;;;;2.70;1.20;;;24.70;79.90;;;;;;4863587;29;20052;-93
2022/05/17 10:52:13;;;;;;;1.60;1.15;;;24.60;76.40;;;;;;4853745;29;20060;-94
2022/05/17 10:55:05;;;;;;;1.27;1.00;;;23.80;80.50;;;;;;4879712;29;20044;-96
2022/05/17 10:57:48;;;;;;;1.52;1.00;;;24.40;81.90;;;;;;4888093;29;20044;-84
2022/05/17 11:00:31;;;;;;;1.33;1.23;;;25.10;80.00;;;;;;4882602;29;20127;-91
2022/05/17 11:03:01;;;;;;;0.73;0.73;;;25.50;77.30;;;;;;4880723;29;20120;-95
2022/05/17 11:05:53;;;;;;;1.83;1.00;;;25.60;78.10;;;;;;4892496;29;20044;-95
2022/05/17 11:08:42;;;;;;;1.60;0.80;;;25.70;73.20;;;;;;4866368;29;20407;-93
2022/05/17 11:11:46;;;;;;;0.73;0.70;;;25.60;70.60;;;;;;4897626;29;20083;-95
2022/05/17 11:14:45;;;;;;;2.03;0.98;;;25.50;70.70;;;;;;4787815;29;20067;-95
2022/05/17 11:17:44;;;;;;;1.77;1.00;;;25.40;71.00;;;;;;4866982;29;20109;-91
2022/05/17 11:20:38;;;;;;;4.32;1.35;;;25.30;72.40;;;;;;4866233;29;20055;-90
2022/05/17 11:23:28;;;;;;;2.92;1.00;;;25.60;73.40;;;;;;4854058;29;20144;-93
2022/05/17 11:25:54;;;;;;;1.48;1.00;;;25.60;69.00;;;;;;4855542;29;20464;-93
2022/05/17 11:28:44;;;;;;;;;;;25.70;70.80;;;;;;4881634;29;20041;-93
2022/05/17 11:31:30;;;;;;;1.80;1.17;;;25.80;68.40;;;;;;4868666;29;19923;-96
2022/05/17 11:34:34;;;;;;;1.10;0.95;;;25.90;70.00;;;;;;4890081;29;20052;-96
2022/05/17 11:54:12;;;;;;;3.65;1.40;;;26.30;67.50;;;;;;4840155;29;20172;-88
2022/05/17 11:56:41;;;;;;;1.70;0.98;;;26.60;70.50;;;;;;4809552;29;20046;-90
2022/05/17 11:59:13;;;;;;;3.03;0.90;;;26.60;69.90;;;;;;4854621;29;20404;-91
2022/05/17 12:01:38;;;;;;;2.72;1.75;;;26.30;69.60;;;;;;4865466;29;20053;-92
2022/05/17 12:04:07;;;;;;;1.95;1.10;;;26.20;69.50;;;;;;4866227;29;20055;-87
2022/05/17 12:07:04;;;;;;;1.33;1.23;;;26.20;70.30;;;;;;4890885;29;20575;-89
2022/05/17 12:09:38;;;;;;;6.10;1.30;;;26.20;69.80;;;;;;4865684;29;20044;-89
2022/05/17 12:12:27;;;;;;;4.15;1.30;;;26.10;68.70;;;;;;4866391;29;20052;-91
2022/05/17 12:15:10;;;;;;;2.60;0.95;;;25.80;67.70;;;;;;4887363;29;20063;-90
2022/05/17 12:17:46;;;;;;;1.30;1.20;;;25.70;67.40;;;;;;4873708;29;20056;-94
2022/05/17 12:21:02;;;;;;;2.13;1.25;;;25.30;68.40;;;;;;4869891;29;20044;-94
2022/05/17 12:23:35;;;;;;;2.40;1.65;;;25.60;69.70;;;;;;4885023;29;20084;-93
2022/05/17 12:26:08;;;;;;;1.25;1.13;;;25.80;69.00;;;;;;4885987;29;20052;-92
2022/05/17 12:28:57;;;;;;;;;;;;;;;;;;;;;
2022/05/17 12:31:35;;;;;;;1.98;1.10;;;26.10;68.40;;;;;;4883784;29;20049;-94
2022/05/17 12:34:08;;;;;;;1.20;1.10;;;25.60;69.90;;;;;;4885259;29;20542;-94
2022/05/17 12:36:39;;;;;;;1.90;1.30;;;25.40;69.60;;;;;;4884210;29;20506;-94
2022/05/17 12:44:53;;;;;;;1.98;1.20;;;25.30;70.80;;;;;;4870791;29;20056;-92
2022/05/17 12:47:41;;;;;;;2.25;1.25;;;25.20;70.50;;;;;;4883697;29;20171;-91
2022/05/17 12:50:17;;;;;;;1.40;1.30;;;25.30;71.10;;;;;;4906993;29;20219;-93
2022/05/17 12:52:46;;;;;;;4.05;1.50;;;25.30;71.30;;;;;;4902614;29;20487;-91
2022/05/17 12:55:18;;;;;;;5.35;1.30;;;25.30;71.70;;;;;;4904163;29;20517;-93
2022/05/17 12:57:44;;;;;;;2.40;1.30;;;25.30;72.60;;;;;;4865677;29;20436;-93
2022/05/17 13:00:30;;;;;;;;;;;25.30;72.80;;;;;;4882310;29;20044;-92
2022/05/17 13:03:03;;;;;;;1.83;1.08;;;25.40;71.50;;;;;;4874989;29;19927;-95
2022/05/17 13:05:40;;;;;;;2.97;1.40;;;24.80;73.70;;;;;;4869823;29;20024;-95
2022/05/17 13:08:17;;;;;;;2.08;1.63;;;25.40;72.10;;;;;;4885631;29;20052;-94
2022/05/17 13:10:59;;;;;;;4.32;1.42;;;25.60;72.90;;;;;;4899696;29;20119;-91
2022/05/17 13:13:27;;;;;;;3.20;2.03;;;25.80;73.50;;;;;;4900862;29;20048;-89
2022/05/17 13:15:57;;;;;;;3.90;1.38;;;25.80;73.20;;;;;;4893176;29;20055;-96
2022/05/17 13:18:32;;;;;;;3.75;1.38;;;25.70;72.60;;;;;;4890621;29;20080;-96
2022/05/17 13:21:00;;;;;;;1.77;1.55;;;25.60;72.20;;;;;;4870349;29;20049;-93
2022/05/17 13:23:27;;;;;;;2.30;1.35;;;25.50;72.50;;;;;;4889090;29;20041;-89
2022/05/17 13:25:55;;;;;;;3.25;1.85;;;25.30;73.00;;;;;;4867487;29;20055;-91
2022/05/17 13:28:29;;;;;;;2.42;1.55;;;25.10;73.20;;;;;;4881559;29;20064;-89
2022/05/17 13:31:23;;;;;;;5.38;1.58;;;25.10;73.20;;;;;;4899717;29;20044;-90
2022/05/17 13:34:17;;;;;;;3.70;2.00;;;25.00;73.70;;;;;;4864193;29;20166;-92
2022/05/17 13:36:42;;;;;;;6.78;1.77;;;24.90;74.40;;;;;;4877617;29;20504;-91
2022/05/17 13:39:19;;;;;;;;;;;24.80;75.30;;;;;;4897615;29;20080;-93
2022/05/17 13:41:45;;;;;;;4.28;1.80;;;24.80;76.80;;;;;;4883251;29;19927;-93
2022/05/17 13:44:24;;;;;;;;;;;24.80;76.40;;;;;;4884240;29;20052;-94
2022/05/17 13:46:50;;;;;;;4.97;2.92;;;24.70;78.20;;;;;;4896296;29;20018;-93
2022/05/17 13:49:37;;;;;;;2.85;1.52;;;24.70;76.70;;;;;;4871707;29;20124;-90
2022/05/17 13:52:32;;;;;;;3.53;1.80;;;24.80;77.70;;;;;;4893399;29;20487;-91
2022/05/17 13:55:02;;;;;;;4.10;1.75;;;24.80;78.90;;;;;;4887067;29;20061;-90